sensor_id;sensor_type;location;lat;lon;timestamp;pressure;altitude;pressure_sealevel;temperature;humidity
62634;BME280;48704;50.534;6.442;2024-01-10T00:07:16;96400.81;;;-8.60;74.94
62634;BME280;48704;50.534;6.442;2024-01-10T00:09:59;96398.91;;;-8.47;74.35
62634;BME280;48704;50.534;6.442;2024-01-10T00:26:44;96392.13;;;-8.53;74.87
62634;BME280;48704;50.534;6.442;2024-01-10T00:29:11;96393.16;;;-8.46;75.47
62634;BME280;48704;50.534;6.442;2024-01-10T00:34:03;96383.50;;;-8.22;71.90
62634;BME280;48704;50.534;6.442;2024-01-10T00:36:29;96376.59;;;-8.32;73.16
62634;BME280;48704;50.534;6.442;2024-01-10T00:43:57;96365.56;;;-8.27;75.14
62634;BME280;48704;50.534;6.442;2024-01-10T00:48:50;96362.66;;;-8.46;74.13
62634;BME280;48704;50.534;6.442;2024-01-10T00:53:56;96358.38;;;-8.35;73.23
62634;BME280;48704;50.534;6.442;2024-01-10T01:03:47;96352.16;;;-8.72;74.80
62634;BME280;48704;50.534;6.442;2024-01-10T01:06:37;96353.19;;;-8.64;76.03
62634;BME280;48704;50.534;6.442;2024-01-10T01:09:03;96351.63;;;-8.65;76.65
62634;BME280;48704;50.534;6.442;2024-01-10T01:11:39;96343.81;;;-8.91;77.54
62634;BME280;48704;50.534;6.442;2024-01-10T01:19:55;96360.75;;;-9.03;79.82
62634;BME280;48704;50.534;6.442;2024-01-10T01:25:29;96359.13;;;-9.16;81.86
62634;BME280;48704;50.534;6.442;2024-01-10T01:41:56;96364.69;;;-9.33;83.16
62634;BME280;48704;50.534;6.442;2024-01-10T01:59:45;96359.97;;;-9.36;83.91
62634;BME280;48704;50.534;6.442;2024-01-10T02:02:42;96351.41;;;-9.38;84.18
62634;BME280;48704;50.534;6.442;2024-01-10T02:05:23;96346.00;;;-9.38;83.98
62634;BME280;48704;50.534;6.442;2024-01-10T02:11:19;96346.28;;;-9.31;83.49
62634;BME280;48704;50.534;6.442;2024-01-10T02:17:14;96349.16;;;-9.36;83.19
62634;BME280;48704;50.534;6.442;2024-01-10T02:20:21;96336.78;;;-9.37;83.54
62634;BME280;48704;50.534;6.442;2024-01-10T02:23:53;96346.66;;;-9.41;83.83
62634;BME280;48704;50.534;6.442;2024-01-10T02:51:55;96322.00;;;-9.19;83.17
62634;BME280;48704;50.534;6.442;2024-01-10T02:54:57;96322.47;;;-9.17;84.06
62634;BME280;48704;50.534;6.442;2024-01-10T02:58:12;96316.44;;;-9.02;82.51
62634;BME280;48704;50.534;6.442;2024-01-10T03:05:07;96315.94;;;-9.16;82.63
62634;BME280;48704;50.534;6.442;2024-01-10T03:14:40;96308.03;;;-9.21;83.53
62634;BME280;48704;50.534;6.442;2024-01-10T03:17:30;96314.47;;;-9.14;84.01
62634;BME280;48704;50.534;6.442;2024-01-10T03:20:18;96313.56;;;-9.18;83.82
62634;BME280;48704;50.534;6.442;2024-01-10T03:27:05;96304.88;;;-9.23;83.72
62634;BME280;48704;50.534;6.442;2024-01-10T03:31:10;96301.97;;;-9.18;83.16
62634;BME280;48704;50.534;6.442;2024-01-10T03:36:42;96308.28;;;-9.14;84.13
62634;BME280;48704;50.534;6.442;2024-01-10T03:43:39;96295.38;;;-9.08;83.43
62634;BME280;48704;50.534;6.442;2024-01-10T04:07:30;96296.88;;;-8.87;81.23
62634;BME280;48704;50.534;6.442;2024-01-10T04:09:55;96294.41;;;-8.92;81.68
62634;BME280;48704;50.534;6.442;2024-01-10T04:14:49;96292.84;;;-8.93;82.44
62634;BME280;48704;50.534;6.442;2024-01-10T04:17:19;96294.41;;;-8.92;82.69
62634;BME280;48704;50.534;6.442;2024-01-10T04:24:40;96290.31;;;-9.10;83.51
62634;BME280;48704;50.534;6.442;2024-01-10T04:27:05;96293.91;;;-9.06;82.58
62634;BME280;48704;50.534;6.442;2024-01-10T04:29:30;96292.38;;;-8.95;84.07
62634;BME280;48704;50.534;6.442;2024-01-10T04:31:56;96296.72;;;-9.15;84.11
62634;BME280;48704;50.534;6.442;2024-01-10T04:34:21;96305.13;;;-9.16;85.56
62634;BME280;48704;50.534;6.442;2024-01-10T04:36:48;96300.41;;;-9.19;85.58
62634;BME280;48704;50.534;6.442;2024-01-10T04:39:13;96298.16;;;-9.17;87.28
62634;BME280;48704;50.534;6.442;2024-01-10T04:41:38;96291.50;;;-9.20;87.18
62634;BME280;48704;50.534;6.442;2024-01-10T04:48:08;96296.13;;;-9.32;88.18
62634;BME280;48704;50.534;6.442;2024-01-10T04:57:46;96288.94;;;-9.16;86.70
62634;BME280;48704;50.534;6.442;2024-01-10T05:00:13;96280.72;;;-9.20;86.06
62634;BME280;48704;50.534;6.442;2024-01-10T05:02:39;96279.97;;;-9.08;86.55
62634;BME280;48704;50.534;6.442;2024-01-10T05:05:21;96282.88;;;-9.13;85.23
62634;BME280;48704;50.534;6.442;2024-01-10T05:07:49;96282.34;;;-9.06;85.60
62634;BME280;48704;50.534;6.442;2024-01-10T05:10:16;96283.88;;;-9.18;85.56
62634;BME280;48704;50.534;6.442;2024-01-10T05:12:41;96281.50;;;-9.19;86.65
62634;BME280;48704;50.534;6.442;2024-01-10T05:15:07;96276.31;;;-9.24;86.02
62634;BME280;48704;50.534;6.442;2024-01-10T05:17:33;96275.19;;;-9.23;86.08
62634;BME280;48704;50.534;6.442;2024-01-10T05:19:59;96276.56;;;-9.17;85.60
62634;BME280;48704;50.534;6.442;2024-01-10T05:22:24;96277.91;;;-9.23;85.81
62634;BME280;48704;50.534;6.442;2024-01-10T05:27:17;96270.25;;;-9.21;86.01
62634;BME280;48704;50.534;6.442;2024-01-10T05:29:43;96279.03;;;-9.24;86.20
62634;BME280;48704;50.534;6.442;2024-01-10T05:32:08;96260.78;;;-9.27;86.82
62634;BME280;48704;50.534;6.442;2024-01-10T05:34:34;96268.47;;;-9.17;85.89
62634;BME280;48704;50.534;6.442;2024-01-10T05:37:00;96265.47;;;-9.03;85.73
62634;BME280;48704;50.534;6.442;2024-01-10T05:39:25;96266.69;;;-9.13;85.65
62634;BME280;48704;50.534;6.442;2024-01-10T05:41:50;96267.22;;;-9.20;85.85
62634;BME280;48704;50.534;6.442;2024-01-10T05:44:16;96263.09;;;-9.05;85.82
62634;BME280;48704;50.534;6.442;2024-01-10T05:46:41;96265.13;;;-9.02;84.64
62634;BME280;48704;50.534;6.442;2024-01-10T05:53:24;96259.63;;;-8.93;85.44
62634;BME280;48704;50.534;6.442;2024-01-10T06:03:38;96257.28;;;-8.95;86.28
62634;BME280;48704;50.534;6.442;2024-01-10T06:06:07;96250.53;;;-8.64;85.07
62634;BME280;48704;50.534;6.442;2024-01-10T06:08:40;96242.19;;;-8.59;84.73
62634;BME280;48704;50.534;6.442;2024-01-10T06:11:08;96251.63;;;-8.53;84.29
62634;BME280;48704;50.534;6.442;2024-01-10T06:13:50;96242.41;;;-8.77;84.63
62634;BME280;48704;50.534;6.442;2024-01-10T06:16:43;96249.63;;;-8.93;85.77
62634;BME280;48704;50.534;6.442;2024-01-10T06:23:09;96257.94;;;-8.86;85.20
62634;BME280;48704;50.534;6.442;2024-01-10T06:29:28;96268.72;;;-8.86;85.38
62634;BME280;48704;50.534;6.442;2024-01-10T06:32:49;96264.47;;;-8.87;87.50
62634;BME280;48704;50.534;6.442;2024-01-10T06:38:10;96266.91;;;-9.06;89.17
62634;BME280;48704;50.534;6.442;2024-01-10T06:41:10;96269.34;;;-9.25;89.72
62634;BME280;48704;50.534;6.442;2024-01-10T06:44:12;96262.16;;;-9.33;91.51
62634;BME280;48704;50.534;6.442;2024-01-10T06:46:51;96268.75;;;-9.43;91.65
62634;BME280;48704;50.534;6.442;2024-01-10T06:52:50;96271.94;;;-9.62;95.37
62634;BME280;48704;50.534;6.442;2024-01-10T06:56:06;96273.50;;;-9.61;96.37
62634;BME280;48704;50.534;6.442;2024-01-10T06:58:59;96276.53;;;-9.62;96.39
62634;BME280;48704;50.534;6.442;2024-01-10T07:01:37;96277.50;;;-9.79;94.53
62634;BME280;48704;50.534;6.442;2024-01-10T07:04:48;96271.94;;;-9.62;95.61
62634;BME280;48704;50.534;6.442;2024-01-10T07:10:57;96271.59;;;-9.27;93.79
62634;BME280;48704;50.534;6.442;2024-01-10T07:13:25;96271.84;;;-9.20;92.52
62634;BME280;48704;50.534;6.442;2024-01-10T07:16:01;96272.16;;;-9.34;94.13
62634;BME280;48704;50.534;6.442;2024-01-10T07:18:37;96267.28;;;-9.40;94.62
62634;BME280;48704;50.534;6.442;2024-01-10T07:21:24;96269.09;;;-9.45;95.21
62634;BME280;48704;50.534;6.442;2024-01-10T07:24:18;96274.06;;;-9.22;94.07
62634;BME280;48704;50.534;6.442;2024-01-10T07:30:23;96281.25;;;-9.26;91.41
62634;BME280;48704;50.534;6.442;2024-01-10T07:33:06;96277.00;;;-9.27;92.29
62634;BME280;48704;50.534;6.442;2024-01-10T07:49:36;96289.97;;;-9.08;92.45
62634;BME280;48704;50.534;6.442;2024-01-10T07:52:10;96286.31;;;-8.92;92.63
62634;BME280;48704;50.534;6.442;2024-01-10T07:54:36;96284.94;;;-8.98;92.79
62634;BME280;48704;50.534;6.442;2024-01-10T07:57:01;96284.28;;;-8.70;91.01
62634;BME280;48704;50.534;6.442;2024-01-10T07:59:30;96291.06;;;-8.64;90.61
62634;BME280;48704;50.534;6.442;2024-01-10T08:02:00;96280.91;;;-8.80;89.19
62634;BME280;48704;50.534;6.442;2024-01-10T08:04:26;96289.91;;;-8.75;90.68
62634;BME280;48704;50.534;6.442;2024-01-10T08:06:52;96294.19;;;-8.74;89.83
62634;BME280;48704;50.534;6.442;2024-01-10T08:09:17;96292.28;;;-8.74;90.57
62634;BME280;48704;50.534;6.442;2024-01-10T08:11:44;96298.69;;;-8.79;90.34
62634;BME280;48704;50.534;6.442;2024-01-10T08:14:12;96301.16;;;-8.73;90.88
62634;BME280;48704;50.534;6.442;2024-01-10T08:16:38;96300.84;;;-8.72;90.94
62634;BME280;48704;50.534;6.442;2024-01-10T08:19:03;96309.50;;;-8.66;90.18
62634;BME280;48704;50.534;6.442;2024-01-10T08:21:31;96306.56;;;-8.73;90.53
62634;BME280;48704;50.534;6.442;2024-01-10T08:24:03;96311.06;;;-8.78;90.13
62634;BME280;48704;50.534;6.442;2024-01-10T08:26:28;96310.41;;;-8.74;90.47
62634;BME280;48704;50.534;6.442;2024-01-10T08:28:56;96312.78;;;-8.61;91.96
62634;BME280;48704;50.534;6.442;2024-01-10T08:31:25;96315.38;;;-8.40;92.33
62634;BME280;48704;50.534;6.442;2024-01-10T08:34:02;96308.13;;;-8.24;90.99
62634;BME280;48704;50.534;6.442;2024-01-10T08:36:39;96313.56;;;-8.36;89.67
62634;BME280;48704;50.534;6.442;2024-01-10T08:39:13;96310.84;;;-8.36;90.42
62634;BME280;48704;50.534;6.442;2024-01-10T08:41:39;96310.19;;;-8.33;88.69
62634;BME280;48704;50.534;6.442;2024-01-10T08:44:14;96311.41;;;-8.18;87.85
62634;BME280;48704;50.534;6.442;2024-01-10T08:46:42;96313.72;;;-8.17;86.76
62634;BME280;48704;50.534;6.442;2024-01-10T08:49:10;96309.91;;;-8.16;87.75
62634;BME280;48704;50.534;6.442;2024-01-10T08:51:36;96307.41;;;-7.96;87.92
62634;BME280;48704;50.534;6.442;2024-01-10T08:54:12;96310.09;;;-7.84;87.02
62634;BME280;48704;50.534;6.442;2024-01-10T08:56:44;96316.19;;;-7.87;87.51
62634;BME280;48704;50.534;6.442;2024-01-10T08:59:11;96312.53;;;-7.79;87.75
62634;BME280;48704;50.534;6.442;2024-01-10T09:01:37;96314.44;;;-7.39;86.54
62634;BME280;48704;50.534;6.442;2024-01-10T09:04:07;96314.28;;;-7.47;85.29
62634;BME280;48704;50.534;6.442;2024-01-10T09:06:35;96310.53;;;-7.14;84.27
62634;BME280;48704;50.534;6.442;2024-01-10T09:09:01;96331.31;;;-7.46;83.34
62634;BME280;48704;50.534;6.442;2024-01-10T09:11:26;96324.91;;;-7.54;84.03
62634;BME280;48704;50.534;6.442;2024-01-10T09:13:52;96334.94;;;-7.66;84.54
62634;BME280;48704;50.534;6.442;2024-01-10T09:16:17;96326.91;;;-7.51;84.94
62634;BME280;48704;50.534;6.442;2024-01-10T09:18:50;96329.81;;;-7.44;84.00
62634;BME280;48704;50.534;6.442;2024-01-10T09:21:19;96331.59;;;-7.35;83.62
62634;BME280;48704;50.534;6.442;2024-01-10T09:23:46;96324.59;;;-7.09;82.66
62634;BME280;48704;50.534;6.442;2024-01-10T09:26:15;96323.59;;;-6.88;81.51
62634;BME280;48704;50.534;6.442;2024-01-10T09:28:40;96325.31;;;-6.96;82.58
62634;BME280;48704;50.534;6.442;2024-01-10T09:31:05;96334.66;;;-6.93;81.25
62634;BME280;48704;50.534;6.442;2024-01-10T09:33:34;96325.44;;;-6.61;82.06
62634;BME280;48704;50.534;6.442;2024-01-10T09:36:00;96334.09;;;-6.71;80.92
62634;BME280;48704;50.534;6.442;2024-01-10T09:38:25;96330.94;;;-6.73;81.69
62634;BME280;48704;50.534;6.442;2024-01-10T09:40:53;96336.47;;;-6.38;79.52
62634;BME280;48704;50.534;6.442;2024-01-10T09:43:24;96339.88;;;-6.25;78.99
62634;BME280;48704;50.534;6.442;2024-01-10T09:45:49;96337.84;;;-6.13;79.60
62634;BME280;48704;50.534;6.442;2024-01-10T09:48:21;96334.69;;;-6.15;79.21
62634;BME280;48704;50.534;6.442;2024-01-10T09:50:48;96332.38;;;-6.32;79.28
62634;BME280;48704;50.534;6.442;2024-01-10T09:53:22;96329.63;;;-6.00;78.57
62634;BME280;48704;50.534;6.442;2024-01-10T09:55:54;96328.47;;;-5.80;79.34
62634;BME280;48704;50.534;6.442;2024-01-10T09:58:25;96325.75;;;-5.80;79.44
62634;BME280;48704;50.534;6.442;2024-01-10T10:00:51;96320.50;;;-5.54;78.04
62634;BME280;48704;50.534;6.442;2024-01-10T10:03:17;96315.94;;;-5.69;77.82
62634;BME280;48704;50.534;6.442;2024-01-10T10:05:43;96319.16;;;-5.44;76.99
62634;BME280;48704;50.534;6.442;2024-01-10T10:08:13;96324.88;;;-5.68;77.42
62634;BME280;48704;50.534;6.442;2024-01-10T10:10:48;96321.88;;;-5.63;78.49
62634;BME280;48704;50.534;6.442;2024-01-10T10:13:27;96320.03;;;-5.59;78.01
62634;BME280;48704;50.534;6.442;2024-01-10T10:16:03;96321.53;;;-5.23;78.04
62634;BME280;48704;50.534;6.442;2024-01-10T10:18:30;96314.97;;;-5.22;78.08
62634;BME280;48704;50.534;6.442;2024-01-10T10:21:07;96313.09;;;-5.18;77.61
62634;BME280;48704;50.534;6.442;2024-01-10T10:23:34;96302.53;;;-5.23;76.10
62634;BME280;48704;50.534;6.442;2024-01-10T10:26:09;96306.50;;;-5.17;77.25
62634;BME280;48704;50.534;6.442;2024-01-10T10:28:35;96307.13;;;-4.85;76.97
62634;BME280;48704;50.534;6.442;2024-01-10T10:31:01;96309.06;;;-5.05;77.04
62634;BME280;48704;50.534;6.442;2024-01-10T10:33:27;96311.22;;;-4.95;nan
62634;BME280;48704;50.534;6.442;2024-01-10T10:35:52;96315.09;;;-4.96;77.93
62634;BME280;48704;50.534;6.442;2024-01-10T10:38:17;96313.94;;;-4.95;77.40
62634;BME280;48704;50.534;6.442;2024-01-10T10:40:43;96314.66;;;-4.98;78.19
62634;BME280;48704;50.534;6.442;2024-01-10T10:43:12;96311.00;;;-5.06;77.58
62634;BME280;48704;50.534;6.442;2024-01-10T10:45:43;96313.94;;;-4.95;77.42
62634;BME280;48704;50.534;6.442;2024-01-10T10:48:17;96319.50;;;-4.88;79.06
62634;BME280;48704;50.534;6.442;2024-01-10T10:50:59;96307.72;;;-4.73;79.66
62634;BME280;48704;50.534;6.442;2024-01-10T10:53:29;96314.06;;;-4.88;79.11
62634;BME280;48704;50.534;6.442;2024-01-10T10:55:56;96315.56;;;-4.90;79.96
62634;BME280;48704;50.534;6.442;2024-01-10T10:58:22;96303.81;;;-4.52;81.00
62634;BME280;48704;50.534;6.442;2024-01-10T11:00:47;96304.56;;;-4.55;80.36
62634;BME280;48704;50.534;6.442;2024-01-10T11:03:14;96318.31;;;-4.45;81.87
62634;BME280;48704;50.534;6.442;2024-01-10T11:05:40;96312.03;;;-4.26;81.05
62634;BME280;48704;50.534;6.442;2024-01-10T11:08:08;96307.03;;;-4.47;80.46
62634;BME280;48704;50.534;6.442;2024-01-10T11:10:37;96314.34;;;-4.01;79.82
62634;BME280;48704;50.534;6.442;2024-01-10T11:21:22;96294.16;;;-3.74;78.33
62634;BME280;48704;50.534;6.442;2024-01-10T11:23:58;96296.63;;;-3.62;78.10
62634;BME280;48704;50.534;6.442;2024-01-10T11:26:25;96300.63;;;-3.22;75.97
62634;BME280;48704;50.534;6.442;2024-01-10T11:28:51;96287.81;;;-2.44;74.00
62634;BME280;48704;50.534;6.442;2024-01-10T11:31:27;96285.03;;;-2.04;73.25
62634;BME280;48704;50.534;6.442;2024-01-10T11:33:55;96282.28;;;-1.42;70.38
62634;BME280;48704;50.534;6.442;2024-01-10T11:36:21;96286.94;;;-1.53;70.67
62634;BME280;48704;50.534;6.442;2024-01-10T11:41:27;96280.94;;;-0.86;67.82
62634;BME280;48704;50.534;6.442;2024-01-10T11:46:34;96277.16;;;-0.07;66.62
62634;BME280;48704;50.534;6.442;2024-01-10T11:48:59;96277.69;;;0.93;63.91
62634;BME280;48704;50.534;6.442;2024-01-10T11:51:26;96277.47;;;0.38;64.85
62634;BME280;48704;50.534;6.442;2024-01-10T11:53:52;96268.34;;;0.77;61.83
62634;BME280;48704;50.534;6.442;2024-01-10T11:56:18;96266.59;;;1.84;60.86
62634;BME280;48704;50.534;6.442;2024-01-10T11:59:01;96271.56;;;1.96;59.40
62634;BME280;48704;50.534;6.442;2024-01-10T12:01:30;96261.81;;;1.88;60.65
62634;BME280;48704;50.534;6.442;2024-01-10T12:03:55;96261.56;;;1.72;58.57
62634;BME280;48704;50.534;6.442;2024-01-10T12:06:22;96258.97;;;2.03;61.08
62634;BME280;48704;50.534;6.442;2024-01-10T12:08:48;96256.38;;;2.26;58.49
62634;BME280;48704;50.534;6.442;2024-01-10T12:11:14;96257.75;;;2.48;60.25
62634;BME280;48704;50.534;6.442;2024-01-10T12:13:41;96257.50;;;2.69;57.52
62634;BME280;48704;50.534;6.442;2024-01-10T12:16:07;96252.66;;;2.06;60.08
62634;BME280;48704;50.534;6.442;2024-01-10T12:18:32;96249.47;;;2.11;59.49
62634;BME280;48704;50.534;6.442;2024-01-10T12:20:59;96256.03;;;2.61;58.28
62634;BME280;48704;50.534;6.442;2024-01-10T12:23:25;96252.44;;;2.64;58.55
62634;BME280;48704;50.534;6.442;2024-01-10T12:25:56;96249.28;;;3.00;57.42
62634;BME280;48704;50.534;6.442;2024-01-10T12:28:22;96252.59;;;3.18;57.04
62634;BME280;48704;50.534;6.442;2024-01-10T12:30:48;96252.00;;;2.69;57.97
62634;BME280;48704;50.534;6.442;2024-01-10T12:33:13;96253.84;;;1.53;60.61
62634;BME280;48704;50.534;6.442;2024-01-10T12:35:39;96255.38;;;1.57;61.87
62634;BME280;48704;50.534;6.442;2024-01-10T12:38:10;96257.22;;;1.78;62.31
62634;BME280;48704;50.534;6.442;2024-01-10T12:40:36;96256.81;;;1.76;61.57
62634;BME280;48704;50.534;6.442;2024-01-10T12:43:05;96248.38;;;2.42;59.80
62634;BME280;48704;50.534;6.442;2024-01-10T12:45:31;96258.28;;;1.36;60.52
62634;BME280;48704;50.534;6.442;2024-01-10T12:47:57;96250.66;;;2.51;59.87
62634;BME280;48704;50.534;6.442;2024-01-10T12:50:23;96249.22;;;1.91;59.96
62634;BME280;48704;50.534;6.442;2024-01-10T12:52:50;96251.44;;;1.62;62.40
62634;BME280;48704;50.534;6.442;2024-01-10T12:55:15;96251.03;;;0.97;62.41
62634;BME280;48704;50.534;6.442;2024-01-10T12:57:42;96242.22;;;1.31;62.41
62634;BME280;48704;50.534;6.442;2024-01-10T13:00:08;96245.44;;;1.78;60.51
62634;BME280;48704;50.534;6.442;2024-01-10T13:02:35;96246.81;;;1.48;62.39
62634;BME280;48704;50.534;6.442;2024-01-10T13:05:06;96235.47;;;1.94;60.94
62634;BME280;48704;50.534;6.442;2024-01-10T13:07:38;96237.44;;;1.42;61.53
62634;BME280;48704;50.534;6.442;2024-01-10T13:10:04;96241.91;;;2.22;60.34
62634;BME280;48704;50.534;6.442;2024-01-10T13:12:29;96242.50;;;2.40;59.63
62634;BME280;48704;50.534;6.442;2024-01-10T13:14:55;96248.25;;;2.56;59.06
62634;BME280;48704;50.534;6.442;2024-01-10T13:17:21;96248.94;;;3.28;58.20
62634;BME280;48704;50.534;6.442;2024-01-10T13:19:47;96246.31;;;3.72;57.02
62634;BME280;48704;50.534;6.442;2024-01-10T13:22:22;96249.66;;;3.86;56.02
62634;BME280;48704;50.534;6.442;2024-01-10T13:25:08;96256.94;;;3.73;55.56
62634;BME280;48704;50.534;6.442;2024-01-10T13:28:00;96249.69;;;3.83;56.25
62634;BME280;48704;50.534;6.442;2024-01-10T13:31:05;96261.50;;;3.29;55.75
62634;BME280;48704;50.534;6.442;2024-01-10T13:33:30;96249.19;;;2.39;57.98
62634;BME280;48704;50.534;6.442;2024-01-10T13:35:55;96248.06;;;2.33;59.57
62634;BME280;48704;50.534;6.442;2024-01-10T13:38:21;96260.47;;;1.59;60.97
62634;BME280;48704;50.534;6.442;2024-01-10T13:40:48;96258.97;;;2.03;60.33
62634;BME280;48704;50.534;6.442;2024-01-10T13:43:15;96255.72;;;2.15;59.52
62634;BME280;48704;50.534;6.442;2024-01-10T13:45:40;96266.41;;;2.06;60.18
62634;BME280;48704;50.534;6.442;2024-01-10T13:48:06;96255.97;;;2.27;59.91
62634;BME280;48704;50.534;6.442;2024-01-10T13:50:32;96255.72;;;2.15;60.30
62634;BME280;48704;50.534;6.442;2024-01-10T13:52:58;96257.44;;;2.77;60.58
62634;BME280;48704;50.534;6.442;2024-01-10T13:55:23;96260.28;;;3.00;58.78
62634;BME280;48704;50.534;6.442;2024-01-10T13:57:49;96259.88;;;2.67;58.18
62634;BME280;48704;50.534;6.442;2024-01-10T14:00:15;96260.72;;;2.64;58.86
62634;BME280;48704;50.534;6.442;2024-01-10T14:02:41;96260.09;;;2.50;59.52
62634;BME280;48704;50.534;6.442;2024-01-10T14:05:07;96267.25;;;2.40;60.08
62634;BME280;48704;50.534;6.442;2024-01-10T14:07:34;96260.19;;;1.94;61.06
62634;BME280;48704;50.534;6.442;2024-01-10T14:10:00;96262.75;;;1.71;60.47
62634;BME280;48704;50.534;6.442;2024-01-10T14:12:27;96272.00;;;1.40;60.71
62634;BME280;48704;50.534;6.442;2024-01-10T14:14:52;96261.41;;;1.34;61.75
62634;BME280;48704;50.534;6.442;2024-01-10T14:17:17;96269.75;;;1.17;62.07
62634;BME280;48704;50.534;6.442;2024-01-10T14:19:43;96282.50;;;0.64;64.20
62634;BME280;48704;50.534;6.442;2024-01-10T14:22:09;96277.06;;;0.40;63.84
62634;BME280;48704;50.534;6.442;2024-01-10T14:24:35;96282.59;;;0.00;66.44
62634;BME280;48704;50.534;6.442;2024-01-10T14:27:00;96284.19;;;-0.38;67.20
62634;BME280;48704;50.534;6.442;2024-01-10T14:29:25;96282.19;;;-0.55;67.90
62634;BME280;48704;50.534;6.442;2024-01-10T14:31:50;96288.41;;;-0.72;69.35
62634;BME280;48704;50.534;6.442;2024-01-10T14:34:16;96289.81;;;-1.24;70.30
62634;BME280;48704;50.534;6.442;2024-01-10T14:36:41;96294.78;;;-1.41;72.09
62634;BME280;48704;50.534;6.442;2024-01-10T14:39:07;96294.09;;;-1.23;71.98
62634;BME280;48704;50.534;6.442;2024-01-10T14:41:32;96296.50;;;-1.80;73.44
62634;BME280;48704;50.534;6.442;2024-01-10T14:43:59;96302.06;;;-1.66;74.75
62634;BME280;48704;50.534;6.442;2024-01-10T14:46:24;96303.88;;;-1.84;75.93
62634;BME280;48704;50.534;6.442;2024-01-10T14:48:50;96307.94;;;-1.64;75.22
62634;BME280;48704;50.534;6.442;2024-01-10T14:51:15;96312.69;;;-1.54;74.81
62634;BME280;48704;50.534;6.442;2024-01-10T14:53:41;96323.34;;;-1.96;76.12
62634;BME280;48704;50.534;6.442;2024-01-10T14:56:07;96330.28;;;-2.03;76.48
62634;BME280;48704;50.534;6.442;2024-01-10T14:58:32;96340.38;;;-2.10;77.39
62634;BME280;48704;50.534;6.442;2024-01-10T15:00:58;96328.41;;;-2.39;79.09
62634;BME280;48704;50.534;6.442;2024-01-10T15:03:23;96333.66;;;-2.64;82.48
62634;BME280;48704;50.534;6.442;2024-01-10T15:05:51;96331.78;;;-2.90;83.97
62634;BME280;48704;50.534;6.442;2024-01-10T15:08:16;96337.09;;;-3.04;86.16
62634;BME280;48704;50.534;6.442;2024-01-10T15:10:42;96336.22;;;-3.12;86.92
62634;BME280;48704;50.534;6.442;2024-01-10T15:13:11;96339.78;;;-3.38;88.55
62634;BME280;48704;50.534;6.442;2024-01-10T15:15:37;96338.22;;;-3.65;88.78
62634;BME280;48704;50.534;6.442;2024-01-10T15:18:04;96339.38;;;-3.66;91.89
62634;BME280;48704;50.534;6.442;2024-01-10T15:20:29;96332.06;;;-3.88;94.30
62634;BME280;48704;50.534;6.442;2024-01-10T15:22:55;96337.38;;;-3.95;95.65
62634;BME280;48704;50.534;6.442;2024-01-10T15:25:21;96338.28;;;-4.14;95.44
62634;BME280;48704;50.534;6.442;2024-01-10T15:27:46;96343.56;;;-3.98;97.38
62634;BME280;48704;50.534;6.442;2024-01-10T15:30:13;96349.53;;;-4.16;97.20
62634;BME280;48704;50.534;6.442;2024-01-10T15:32:38;96361.91;;;-4.18;99.05
62634;BME280;48704;50.534;6.442;2024-01-10T15:35:04;96362.56;;;-4.25;99.12
62634;BME280;48704;50.534;6.442;2024-01-10T15:37:29;96354.66;;;-4.33;100.00
62634;BME280;48704;50.534;6.442;2024-01-10T15:39:55;96357.00;;;-4.32;100.00
62634;BME280;48704;50.534;6.442;2024-01-10T15:42:21;96365.34;;;-4.44;100.00
62634;BME280;48704;50.534;6.442;2024-01-10T15:44:46;96356.50;;;-4.60;100.00
62634;BME280;48704;50.534;6.442;2024-01-10T15:47:11;96360.25;;;-4.68;100.00
62634;BME280;48704;50.534;6.442;2024-01-10T15:49:36;96362.41;;;-4.78;100.00
62634;BME280;48704;50.534;6.442;2024-01-10T15:52:02;96373.28;;;-4.78;100.00
62634;BME280;48704;50.534;6.442;2024-01-10T15:54:27;96378.28;;;-4.80;100.00
62634;BME280;48704;50.534;6.442;2024-01-10T15:56:53;96371.31;;;-5.00;100.00
62634;BME280;48704;50.534;6.442;2024-01-10T15:59:19;96377.00;;;-5.05;100.00
62634;BME280;48704;50.534;6.442;2024-01-10T16:01:44;96370.00;;;-4.87;100.00
62634;BME280;48704;50.534;6.442;2024-01-10T16:04:09;96376.66;;;-5.03;100.00
62634;BME280;48704;50.534;6.442;2024-01-10T16:06:35;96377.94;;;-5.17;100.00
62634;BME280;48704;50.534;6.442;2024-01-10T16:09:01;96379.59;;;-5.12;100.00
62634;BME280;48704;50.534;6.442;2024-01-10T16:11:29;96378.38;;;-5.34;100.00
62634;BME280;48704;50.534;6.442;2024-01-10T16:13:55;96381.34;;;-5.39;100.00
62634;BME280;48704;50.534;6.442;2024-01-10T16:16:26;96377.25;;;-5.49;100.00
62634;BME280;48704;50.534;6.442;2024-01-10T16:18:51;96374.59;;;-5.29;100.00
62634;BME280;48704;50.534;6.442;2024-01-10T16:21:19;96385.84;;;-5.47;100.00
62634;BME280;48704;50.534;6.442;2024-01-10T16:23:46;96381.53;;;-5.67;100.00
62634;BME280;48704;50.534;6.442;2024-01-10T16:26:11;96379.63;;;-5.82;100.00
62634;BME280;48704;50.534;6.442;2024-01-10T16:28:37;96382.94;;;-5.73;100.00
62634;BME280;48704;50.534;6.442;2024-01-10T16:31:02;96385.19;;;-5.94;100.00
62634;BME280;48704;50.534;6.442;2024-01-10T16:33:27;96389.16;;;-5.88;100.00
62634;BME280;48704;50.534;6.442;2024-01-10T16:35:53;96386.84;;;-6.05;100.00
62634;BME280;48704;50.534;6.442;2024-01-10T16:38:18;96385.81;;;-6.17;100.00
62634;BME280;48704;50.534;6.442;2024-01-10T16:40:44;96386.78;;;-6.09;100.00
62634;BME280;48704;50.534;6.442;2024-01-10T16:43:09;96385.59;;;-5.92;100.00
62634;BME280;48704;50.534;6.442;2024-01-10T16:45:34;96386.16;;;-6.02;100.00
62634;BME280;48704;50.534;6.442;2024-01-10T16:48:00;96388.91;;;-5.83;100.00
62634;BME280;48704;50.534;6.442;2024-01-10T16:50:26;96394.53;;;-5.92;100.00
62634;BME280;48704;50.534;6.442;2024-01-10T16:52:56;96394.38;;;-6.15;100.00
62634;BME280;48704;50.534;6.442;2024-01-10T16:55:22;96394.63;;;-6.20;100.00
62634;BME280;48704;50.534;6.442;2024-01-10T16:57:48;96388.16;;;-6.15;100.00
62634;BME280;48704;50.534;6.442;2024-01-10T17:00:17;96388.34;;;-6.08;100.00
62634;BME280;48704;50.534;6.442;2024-01-10T17:02:44;96393.94;;;-6.17;100.00
62634;BME280;48704;50.534;6.442;2024-01-10T17:05:09;96402.25;;;-6.10;100.00
62634;BME280;48704;50.534;6.442;2024-01-10T17:07:34;96407.69;;;-6.10;100.00
62634;BME280;48704;50.534;6.442;2024-01-10T17:10:01;96407.56;;;-6.29;100.00
62634;BME280;48704;50.534;6.442;2024-01-10T17:12:29;96410.22;;;-6.32;100.00